Time;durP1;ratioP1;P1;durP2;ratioP2;P2;SDS_P1;SDS_P2;PMS_P1;PMS_P2;Temp;Humidity;BMP_temperature;BMP_pressure;BME280_temperature;BME280_humidity;BME280_pressure;Samples;Min_cycle;Max_cycle;Signal;HPM_P1;HPM_P2
2023/12/02 00:00:44;;;;;;;33.58;13.10;;;;;;;0.34;62.81;100556.66;5089542;27;96763;-80
2023/12/02 00:03:11;;;;;;;30.80;13.20;;;;;;;0.43;62.57;100556.69;5092674;27;96744;-80
2023/12/02 00:05:37;;;;;;;32.88;13.48;;;;;;;-0.10;64.39;100561.69;5088392;27;99057;-78
2023/12/02 00:08:04;;;;;;;31.83;12.68;;;;;;;0.07;64.51;100562.59;5076501;27;99110;-79
2023/12/02 00:10:30;;;;;;;28.05;12.10;;;;;;;-0.15;64.77;100560.81;5076199;27;96785;-79
2023/12/02 00:12:57;;;;;;;30.55;12.68;;;;;;;-0.17;65.26;100555.59;5082447;27;96885;-78
2023/12/02 00:15:25;;;;;;;34.60;13.43;;;;;;;-0.10;64.83;100551.28;5086992;27;99156;-79
2023/12/02 00:17:51;;;;;;;33.08;14.75;;;;;;;0.59;63.28;100555.00;5083343;27;98016;-78
2023/12/02 00:20:18;;;;;;;33.63;14.07;;;;;;;0.64;62.20;100550.66;5087270;27;96648;-79
2023/12/02 00:22:44;;;;;;;35.70;14.18;;;;;;;0.89;61.80;100543.75;5094753;27;97234;-79
2023/12/02 00:25:10;;;;;;;37.08;14.25;;;;;;;0.96;61.21;100540.28;5089849;27;97766;-78
2023/12/02 00:27:37;;;;;;;34.47;14.25;;;;;;;0.98;60.53;100534.22;5092075;27;99028;-79
2023/12/02 00:30:03;;;;;;;35.35;13.88;;;;;;;0.79;61.37;100540.25;5088108;27;96776;-81
2023/12/02 00:32:31;;;;;;;36.80;15.02;;;;;;;0.69;61.04;100528.13;5079305;27;100199;-80
2023/12/02 00:34:58;;;;;;;38.05;14.98;;;;;;;0.66;61.06;100535.91;5096473;27;99191;-81
2023/12/02 00:37:24;;;;;;;34.80;14.20;;;;;;;1.09;60.41;100529.00;5086759;27;99320;-81
2023/12/02 00:39:50;;;;;;;39.70;15.52;;;;;;;0.96;60.75;100528.13;5084785;27;99116;-80
2023/12/02 00:42:17;;;;;;;36.95;14.98;;;;;;;1.03;60.10;100529.88;5093445;27;97107;-78
2023/12/02 00:44:43;;;;;;;34.03;13.73;;;;;;;0.58;61.24;100529.84;5089969;27;98795;-79
2023/12/02 00:47:10;;;;;;;30.75;12.95;;;;;;;0.64;61.76;100525.53;5087560;27;99170;-79
2023/12/02 00:49:37;;;;;;;34.30;14.00;;;;;;;0.84;61.29;100533.34;5093611;27;96723;-79
2023/12/02 00:52:04;;;;;;;41.47;15.27;;;;;;;1.11;60.00;100533.34;5093956;27;98983;-80
2023/12/02 00:54:33;;;;;;;33.55;14.00;;;;;;;0.79;60.00;100532.44;5090967;27;98840;-80
2023/12/02 00:57:00;;;;;;;35.65;14.30;;;;;;;0.96;59.64;100535.06;5078934;27;98110;-79
2023/12/02 00:59:26;;;;;;;35.60;15.38;;;;;;;0.97;59.47;100534.22;5084517;27;98090;-79
2023/12/02 01:01:53;;;;;;;32.65;14.35;;;;;;;1.22;59.48;100532.47;5083787;27;99212;-78
2023/12/02 01:04:19;;;;;;;36.10;14.20;;;;;;;0.96;59.60;100533.34;5086814;27;99212;-79
2023/12/02 01:06:47;;;;;;;34.03;14.10;;;;;;;0.81;60.56;100530.72;5088728;27;99759;-80
2023/12/02 01:09:13;;;;;;;34.25;14.15;;;;;;;0.83;59.51;100525.53;5094086;27;97491;-78
2023/12/02 01:11:40;;;;;;;34.75;15.18;;;;;;;0.75;60.37;100531.59;5091307;27;96870;-78
2023/12/02 01:14:06;;;;;;;41.45;16.60;;;;;;;1.02;59.21;100543.75;5082062;27;99108;-78
2023/12/02 01:16:33;;;;;;;33.17;13.15;;;;;;;1.04;58.86;100551.56;5081918;27;98960;-78
2023/12/02 01:18:59;;;;;;;33.55;13.40;;;;;;;0.79;59.79;100542.84;5092968;27;97075;-78
2023/12/02 01:21:25;;;;;;;34.22;13.88;;;;;;;0.32;61.64;100553.19;5088183;27;96742;-78
2023/12/02 01:23:53;;;;;;;28.55;12.43;;;;;;;0.32;61.72;100551.47;5090138;27;101010;-78
2023/12/02 01:26:20;;;;;;;32.50;13.30;;;;;;;0.30;61.97;100560.09;5089879;27;98976;-77
2023/12/02 01:28:46;;;;;;;39.03;14.43;;;;;;;0.24;61.95;100550.56;5087734;27;96709;-77
2023/12/02 01:31:13;;;;;;;36.42;14.43;;;;;;;0.22;62.56;100554.00;5080106;27;96746;-78
2023/12/02 01:33:39;;;;;;;37.30;16.08;;;;;;;0.16;61.84;100560.06;5088884;27;101688;-79
2023/12/02 01:36:06;;;;;;;33.75;14.10;;;;;;;0.53;61.46;100567.94;5079761;27;98766;-78
2023/12/02 01:38:33;;;;;;;34.55;14.10;;;;;;;0.51;61.08;100570.56;5085669;27;97115;-78
2023/12/02 01:41:00;;;;;;;30.50;13.80;;;;;;;0.67;61.13;100559.31;5082464;27;97664;-78
2023/12/02 01:43:27;;;;;;;34.85;13.15;;;;;;;0.63;61.41;100559.31;5090322;27;97733;-78
2023/12/02 01:45:55;;;;;;;34.05;13.80;;;;;;;0.76;59.53;100546.34;5090534;27;98830;-78
2023/12/02 01:48:23;;;;;;;33.53;12.82;;;;;;;0.91;59.45;100545.50;5079955;27;97780;-78
2023/12/02 01:50:49;;;;;;;32.55;13.07;;;;;;;1.00;58.62;100547.19;5082480;27;96943;-78
2023/12/02 01:53:16;;;;;;;30.90;13.35;;;;;;;0.96;58.13;100564.56;5080280;27;102096;-78
2023/12/02 01:55:43;;;;;;;34.15;13.13;;;;;;;0.86;58.59;100556.72;5078235;27;99244;-80
2023/12/02 01:58:11;;;;;;;30.08;13.35;;;;;;;1.06;58.02;100560.22;5092065;27;98770;-78
2023/12/02 02:00:38;;;;;;;31.95;13.02;;;;;;;0.89;57.25;100560.22;5088480;27;97040;-78
2023/12/02 02:03:04;;;;;;;34.97;12.77;;;;;;;0.86;58.13;100559.34;5080821;27;99094;-79
2023/12/02 02:05:31;;;;;;;33.90;13.98;;;;;;;0.69;57.66;100561.94;5085803;27;99316;-79
2023/12/02 02:07:57;;;;;;;35.30;14.52;;;;;;;0.60;58.35;100564.50;5088811;27;97312;-75
2023/12/02 02:10:24;;;;;;;36.88;14.52;;;;;;;0.62;57.98;100570.59;5089688;27;96803;-75
2023/12/02 02:12:50;;;;;;;38.80;14.73;;;;;;;0.38;58.56;100568.81;5085016;27;99047;-75
2023/12/02 02:15:18;;;;;;;34.55;14.18;;;;;;;0.62;58.79;100563.66;5084746;27;99129;-75
2023/12/02 02:17:45;;;;;;;33.63;13.40;;;;;;;0.96;57.64;100563.69;5089396;27;96798;-73
2023/12/02 02:20:12;;;;;;;40.60;13.27;;;;;;;1.02;57.07;100566.28;5088018;27;96767;-74
2023/12/02 02:22:39;;;;;;;31.85;13.20;;;;;;;0.88;57.45;100566.28;5090049;27;101829;-74
2023/12/02 02:25:06;;;;;;;34.15;14.05;;;;;;;0.99;57.16;100564.53;5086856;27;98765;-76
2023/12/02 02:27:33;;;;;;;34.97;13.13;;;;;;;1.13;56.71;100557.63;5081770;27;98679;-74
2023/12/02 02:29:59;;;;;;;35.47;13.30;;;;;;;1.00;56.89;100557.63;5080266;27;98738;-74
2023/12/02 02:32:25;;;;;;;29.38;11.80;;;;;;;0.44;58.64;100555.81;5081199;27;100359;-75
2023/12/02 02:34:52;;;;;;;28.27;12.18;;;;;;;0.23;59.26;100561.81;5083338;27;99130;-74
2023/12/02 02:37:19;;;;;;;31.60;12.63;;;;;;;0.35;59.77;100559.25;5083938;27;98671;-75
2023/12/02 02:39:46;;;;;;;27.33;11.70;;;;;;;0.32;59.63;100554.06;5086933;27;100031;-74
2023/12/02 02:42:13;;;;;;;31.67;12.60;;;;;;;0.06;60.22;100547.03;5085817;27;100670;-75
2023/12/02 02:44:39;;;;;;;28.70;11.27;;;;;;;-0.05;61.12;100546.97;5089068;27;99240;-74
2023/12/02 02:47:06;;;;;;;29.17;12.07;;;;;;;0.47;59.62;100536.75;5087532;27;96675;-73
2023/12/02 02:49:32;;;;;;;28.25;11.35;;;;;;;-0.09;61.06;100545.25;5082033;27;96875;-74
2023/12/02 02:51:58;;;;;;;26.63;10.88;;;;;;;0.29;60.70;100548.84;5080270;27;98870;-74
2023/12/02 02:54:25;;;;;;;30.52;12.27;;;;;;;0.29;59.76;100540.19;5081698;27;99088;-78
2023/12/02 02:56:52;;;;;;;27.73;11.25;;;;;;;0.29;59.75;100530.66;5085126;27;97831;-78
2023/12/02 02:59:19;;;;;;;31.17;12.10;;;;;;;0.69;58.73;100522.91;5084242;27;96945;-78
2023/12/02 03:01:47;;;;;;;28.38;11.77;;;;;;;0.79;58.39;100519.44;5081449;27;100557;-78
2023/12/02 03:04:14;;;;;;;32.72;12.13;;;;;;;0.85;57.72;100524.69;5081628;27;100793;-78
2023/12/02 03:06:41;;;;;;;27.38;12.02;;;;;;;0.79;57.94;100533.31;5081638;27;97207;-78
2023/12/02 03:09:11;;;;;;;28.17;11.43;;;;;;;0.72;57.41;100535.94;5082028;27;98879;-78
2023/12/02 03:11:37;;;;;;;29.38;12.18;;;;;;;0.84;57.48;100543.75;5087191;27;98963;-78
2023/12/02 03:14:05;;;;;;;28.00;11.48;;;;;;;0.74;58.27;100547.19;5091448;27;98985;-80
2023/12/02 03:16:32;;;;;;;29.73;12.27;;;;;;;0.60;58.51;100544.56;5092410;27;96653;-81
2023/12/02 03:18:59;;;;;;;27.02;11.60;;;;;;;0.48;58.23;100554.09;5091761;27;96943;-83
2023/12/02 03:21:25;;;;;;;28.30;11.65;;;;;;;0.53;58.77;100553.22;5092623;27;99228;-79
2023/12/02 03:23:51;;;;;;;31.77;12.15;;;;;;;0.66;57.93;100556.72;5079837;27;98810;-80
2023/12/02 03:26:18;;;;;;;28.42;11.07;;;;;;;0.44;58.78;100557.56;5089662;27;96933;-81
2023/12/02 03:28:44;;;;;;;24.73;10.73;;;;;;;0.69;58.06;100556.72;5079900;27;99718;-80
2023/12/02 03:31:12;;;;;;;25.70;11.18;;;;;;;0.62;57.47;100560.19;5088026;27;99136;-80
2023/12/02 03:33:38;;;;;;;23.48;10.10;;;;;;;0.43;58.44;100572.28;5077294;27;98810;-79
2023/12/02 03:36:05;;;;;;;29.90;12.43;;;;;;;0.69;57.74;100569.72;5088278;27;99367;-80
2023/12/02 03:38:33;;;;;;;24.77;10.52;;;;;;;0.82;57.22;100574.09;5092565;27;96749;-79
2023/12/02 03:41:02;;;;;;;25.20;10.60;;;;;;;0.27;58.45;100575.69;5084898;27;101916;-78
2023/12/02 03:43:28;;;;;;;25.02;10.40;;;;;;;0.44;58.68;100565.34;5083055;27;100137;-78
2023/12/02 03:45:55;;;;;;;23.50;10.32;;;;;;;0.51;57.64;100569.69;5085061;27;96716;-80
2023/12/02 03:48:23;;;;;;;24.40;10.07;;;;;;;0.46;58.40;100566.22;5086259;27;98855;-80
2023/12/02 03:50:49;;;;;;;27.23;11.45;;;;;;;-0.19;59.42;100569.41;5083180;27;98514;-80
2023/12/02 03:53:16;;;;;;;27.33;11.27;;;;;;;0.43;59.57;100566.22;5084937;27;99542;-79
2023/12/02 03:55:42;;;;;;;25.60;11.85;;;;;;;0.56;58.81;100549.78;5083940;27;97529;-79
2023/12/02 03:58:09;;;;;;;26.77;11.40;;;;;;;0.55;58.18;100561.91;5087216;27;97186;-80
2023/12/02 04:00:35;;;;;;;28.25;12.02;;;;;;;0.28;58.71;100567.91;5089954;27;99126;-81
2023/12/02 04:03:01;;;;;;;25.10;11.30;;;;;;;0.22;58.76;100578.28;5080109;27;99032;-79
2023/12/02 04:05:29;;;;;;;31.95;11.77;;;;;;;0.66;57.70;100585.31;5086840;27;96802;-79
2023/12/02 04:07:56;;;;;;;36.83;13.63;;;;;;;0.51;58.55;100591.38;5080536;27;98993;-79
2023/12/02 04:10:22;;;;;;;29.55;12.30;;;;;;;0.42;58.28;100595.66;5081950;27;99142;-79
2023/12/02 04:12:48;;;;;;;26.30;11.65;;;;;;;0.67;57.16;100577.53;5080933;27;101181;-78
2023/12/02 04:15:15;;;;;;;34.25;13.55;;;;;;;0.58;56.95;100577.53;5079019;27;96847;-78
2023/12/02 04:17:42;;;;;;;31.10;13.05;;;;;;;0.38;56.67;100569.69;5084444;27;97851;-78
2023/12/02 04:20:10;;;;;;;29.77;12.32;;;;;;;0.45;57.57;100572.28;5081182;27;99263;-79
2023/12/02 04:22:38;;;;;;;26.15;10.98;;;;;;;0.27;58.46;100560.94;5083187;27;99386;-78
2023/12/02 04:25:06;;;;;;;31.23;12.15;;;;;;;0.56;57.68;100552.38;5083758;27;99229;-79
2023/12/02 04:27:32;;;;;;;26.05;10.85;;;;;;;0.59;56.55;100548.03;5088816;27;97290;-78
2023/12/02 04:29:59;;;;;;;25.05;9.75;;;;;;;0.38;56.24;100556.69;5089885;27;98954;-78
2023/12/02 04:32:25;;;;;;;23.70;11.00;;;;;;;0.53;56.42;100568.81;5083316;27;98779;-78
2023/12/02 04:34:52;;;;;;;24.83;10.48;;;;;;;0.34;57.32;100572.25;5079926;27;96859;-78
2023/12/02 04:37:18;;;;;;;35.03;12.80;;;;;;;0.16;57.18;100577.38;5087475;27;99007;-78
2023/12/02 04:39:46;;;;;;;25.65;10.40;;;;;;;0.41;56.79;100561.00;5083272;27;97706;-78
2023/12/02 04:42:12;;;;;;;25.70;9.90;;;;;;;0.36;56.13;100545.41;5089547;27;98812;-79
2023/12/02 04:44:39;;;;;;;27.15;10.57;;;;;;;0.02;57.30;100548.75;5089513;27;96804;-79
2023/12/02 04:47:06;;;;;;;29.10;11.23;;;;;;;-0.05;57.94;100554.78;5084336;27;98703;-79
2023/12/02 04:49:32;;;;;;;26.48;10.57;;;;;;;-0.09;58.39;100556.50;5087862;27;99042;-79
2023/12/02 04:51:58;;;;;;;22.98;10.27;;;;;;;-0.07;58.84;100551.31;5086031;27;99267;-78
2023/12/02 04:54:25;;;;;;;24.75;10.90;;;;;;;-0.19;58.34;100556.44;5090696;27;97383;-79
2023/12/02 04:56:52;;;;;;;27.27;10.98;;;;;;;-0.17;58.41;100568.56;5075874;27;96838;-78
2023/12/02 04:59:19;;;;;;;27.08;10.40;;;;;;;-0.19;58.60;100582.41;5090704;27;99128;-79
2023/12/02 05:01:45;;;;;;;26.50;10.48;;;;;;;-0.67;59.69;100573.47;5087642;27;97669;-79
2023/12/02 05:04:12;;;;;;;23.52;10.00;;;;;;;-0.48;58.89;100577.94;5084648;27;98854;-79
2023/12/02 05:06:40;;;;;;;22.70;10.00;;;;;;;-0.69;60.30;100597.66;5077046;27;97229;-79
2023/12/02 05:09:08;;;;;;;21.52;9.30;;;;;;;-0.86;60.46;100594.94;5090539;27;98921;-79
2023/12/02 05:11:35;;;;;;;21.58;9.35;;;;;;;-0.61;60.43;100596.88;5092849;27;99346;-79
2023/12/02 05:14:03;;;;;;;20.73;8.65;;;;;;;-0.66;60.01;100597.69;5085950;27;97579;-81
2023/12/02 05:16:29;;;;;;;23.92;9.18;;;;;;;-0.60;60.58;100598.59;5081054;27;96838;-81
2023/12/02 05:18:57;;;;;;;20.33;9.13;;;;;;;-0.17;59.00;100598.88;5088002;27;97906;-80
2023/12/02 05:21:23;;;;;;;18.75;8.63;;;;;;;-0.04;58.77;100600.66;5093794;27;101244;-81
2023/12/02 05:23:49;;;;;;;18.50;8.55;;;;;;;-0.51;58.91;100609.03;5091482;27;96824;-81
2023/12/02 05:26:16;;;;;;;18.55;7.78;;;;;;;-0.22;59.15;100610.97;5090515;27;96807;-81
2023/12/02 05:28:43;;;;;;;17.23;7.22;;;;;;;-0.22;59.08;100610.97;5087862;27;98930;-80
2023/12/02 05:31:11;;;;;;;15.63;7.10;;;;;;;-0.11;58.40;100615.34;5082978;27;98799;-79
2023/12/02 05:33:37;;;;;;;18.98;7.22;;;;;;;-0.45;58.88;100609.06;5091241;27;98627;-79
2023/12/02 05:36:04;;;;;;;17.17;7.57;;;;;;;-0.41;59.86;100612.59;5091483;27;96872;-81
2023/12/02 05:38:31;;;;;;;16.45;7.03;;;;;;;-0.75;60.33;100621.84;5083416;27;98899;-80
2023/12/02 05:40:57;;;;;;;14.60;6.83;;;;;;;-0.39;59.66;100622.97;5082615;27;99380;-77
2023/12/02 05:43:23;;;;;;;13.98;6.57;;;;;;;-0.72;59.75;100618.41;5087170;27;96765;-79
2023/12/02 05:45:50;;;;;;;15.52;6.85;;;;;;;-0.51;59.74;100621.16;5087586;27;96748;-79
2023/12/02 05:48:17;;;;;;;19.35;7.55;;;;;;;-0.64;60.26;100625.38;5078991;27;97602;-79
2023/12/02 05:50:44;;;;;;;16.73;7.22;;;;;;;-0.71;60.46;100638.28;5077744;27;99263;-80
2023/12/02 05:53:10;;;;;;;13.93;6.25;;;;;;;-0.48;59.45;100629.84;5090255;27;96975;-80
2023/12/02 05:55:37;;;;;;;13.73;6.10;;;;;;;-0.68;59.66;100631.41;5089614;27;96799;-80
2023/12/02 05:58:04;;;;;;;14.93;6.65;;;;;;;-0.52;59.44;100633.25;5084331;27;97666;-80
2023/12/02 06:00:30;;;;;;;14.40;6.88;;;;;;;-0.32;58.60;100632.53;5086049;27;98853;-80
2023/12/02 06:02:56;;;;;;;15.13;6.93;;;;;;;-0.34;58.95;100626.47;5089976;27;96779;-80
2023/12/02 06:05:24;;;;;;;14.02;6.68;;;;;;;-0.50;59.14;100625.47;5091421;27;96780;-80
2023/12/02 06:07:50;;;;;;;13.88;7.05;;;;;;;-0.55;59.53;100632.38;5093535;27;98193;-80
2023/12/02 06:10:18;;;;;;;16.13;6.93;;;;;;;-0.38;58.79;100635.09;5088706;27;97793;-80
2023/12/02 06:12:44;;;;;;;16.90;7.72;;;;;;;-0.22;58.89;100632.63;5090333;27;96785;-80
2023/12/02 06:15:11;;;;;;;14.02;7.28;;;;;;;-0.32;59.69;100625.59;5092091;27;97239;-78
2023/12/02 06:17:37;;;;;;;16.30;7.20;;;;;;;-0.53;60.23;100625.47;5079506;27;98995;-79
2023/12/02 06:20:06;;;;;;;18.48;8.27;;;;;;;-0.51;60.69;100632.41;5079178;27;99580;-78
2023/12/02 06:22:34;;;;;;;15.73;7.22;;;;;;;-0.37;60.71;100626.44;5089574;27;96756;-79
2023/12/02 06:25:00;;;;;;;21.60;9.98;;;;;;;-0.48;61.08;100626.38;5088485;27;96964;-79
2023/12/02 06:27:26;;;;;;;19.02;8.55;;;;;;;-0.18;60.57;100630.88;5078569;27;99663;-79
2023/12/02 06:29:53;;;;;;;19.10;8.25;;;;;;;-0.15;60.20;100623.13;5086678;27;97716;-79
2023/12/02 06:32:19;;;;;;;19.08;8.70;;;;;;;-0.39;61.36;100623.81;5087393;27;96695;-79
2023/12/02 06:34:46;;;;;;;21.92;9.63;;;;;;;-0.19;60.55;100619.63;5086375;27;96859;-78
2023/12/02 06:37:12;;;;;;;20.13;8.95;;;;;;;-0.27;61.39;100620.47;5079349;27;99016;-78
2023/12/02 06:39:41;;;;;;;18.88;8.80;;;;;;;-0.45;61.82;100622.06;5083874;27;99238;-79
2023/12/02 06:42:07;;;;;;;23.08;9.02;;;;;;;-0.35;61.22;100623.00;5081325;27;98860;-81
2023/12/02 06:44:33;;;;;;;23.00;9.32;;;;;;;-0.23;60.98;100620.47;5089382;27;96734;-80
2023/12/02 06:47:00;;;;;;;22.15;8.82;;;;;;;-0.30;60.26;100628.22;5081216;27;100658;-80
2023/12/02 06:49:26;;;;;;;15.90;7.60;;;;;;;-0.19;60.42;100631.75;5077320;27;101199;-80
2023/12/02 06:51:52;;;;;;;20.20;8.32;;;;;;;-0.04;60.32;100643.09;5083434;27;97050;-79
2023/12/02 06:54:19;;;;;;;18.85;8.00;;;;;;;-0.19;59.92;100639.53;5078610;27;96939;-79
2023/12/02 06:56:47;;;;;;;17.40;8.38;;;;;;;-0.24;60.61;100638.66;5088553;27;99211;-79
2023/12/02 06:59:13;;;;;;;16.70;7.60;;;;;;;-0.14;60.97;100646.53;5076071;27;98091;-78
2023/12/02 07:01:40;;;;;;;15.80;7.28;;;;;;;-0.01;60.45;100650.06;5092468;27;97417;-76
2023/12/02 07:04:06;;;;;;;15.35;7.20;;;;;;;0.23;60.18;100657.97;5077888;27;97143;-76
2023/12/02 07:06:33;;;;;;;17.25;8.05;;;;;;;0.09;59.99;100651.84;5080096;27;101743;-76
2023/12/02 07:08:59;;;;;;;16.08;7.15;;;;;;;-0.08;60.47;100650.88;5085093;27;98741;-75
2023/12/02 07:11:26;;;;;;;15.35;8.00;;;;;;;0.24;59.58;100653.66;5080809;27;96718;-76
2023/12/02 07:13:54;;;;;;;15.90;7.35;;;;;;;0.12;60.59;100659.66;5085325;27;97144;-76
2023/12/02 07:16:20;;;;;;;15.27;7.40;;;;;;;0.18;60.07;100659.69;5086381;27;99201;-76
2023/12/02 07:18:47;;;;;;;17.73;8.13;;;;;;;0.40;59.97;100661.50;5091122;27;101784;-75
2023/12/02 07:21:13;;;;;;;19.38;9.35;;;;;;;0.69;58.97;100664.22;5086959;27;96923;-75
2023/12/02 07:23:40;;;;;;;14.32;7.05;;;;;;;1.01;58.01;100666.91;5084311;27;96809;-75
2023/12/02 07:26:07;;;;;;;17.45;7.22;;;;;;;0.71;58.96;100677.25;5092053;27;98872;-76
2023/12/02 07:28:33;;;;;;;14.90;6.55;;;;;;;0.28;59.48;100677.03;5091312;27;99336;-76
2023/12/02 07:31:01;;;;;;;14.27;6.07;;;;;;;0.41;60.47;100685.78;5088535;27;96947;-73
2023/12/02 07:33:27;;;;;;;15.15;6.45;;;;;;;0.55;60.24;100678.03;5088806;27;96843;-74
2023/12/02 07:35:53;;;;;;;16.65;7.18;;;;;;;0.52;60.64;100689.31;5080268;27;98962;-75
2023/12/02 07:38:20;;;;;;;15.23;7.05;;;;;;;0.99;59.47;100688.56;5079707;27;98762;-74
2023/12/02 07:40:46;;;;;;;14.15;6.00;;;;;;;0.74;59.47;100687.63;5084656;27;97567;-73
2023/12/02 07:43:13;;;;;;;16.88;7.68;;;;;;;0.88;59.69;100690.28;5083102;27;96949;-81
2023/12/02 07:45:41;;;;;;;17.80;7.85;;;;;;;0.90;59.61;100693.78;5087276;27;98916;-81
2023/12/02 07:48:10;;;;;;;16.17;7.05;;;;;;;0.68;60.11;100690.22;5090054;27;98859;-81
2023/12/02 07:50:37;;;;;;;14.60;6.70;;;;;;;0.68;60.22;100687.63;5085249;27;96765;-81
2023/12/02 07:53:03;;;;;;;16.20;6.88;;;;;;;0.79;59.86;100688.50;5082324;27;96723;-80
2023/12/02 07:55:29;;;;;;;18.10;7.93;;;;;;;0.66;60.32;100684.13;5077545;27;97676;-81
2023/12/02 07:57:56;;;;;;;15.23;6.82;;;;;;;0.65;60.43;100687.63;5079564;27;98019;-80
2023/12/02 08:00:22;;;;;;;21.63;8.43;;;;;;;0.97;60.28;100683.38;5089392;27;99069;-81
2023/12/02 08:02:49;;;;;;;29.27;11.70;;;;;;;1.39;58.75;100672.16;5076831;27;96840;-80
2023/12/02 08:05:17;;;;;;;19.85;8.25;;;;;;;1.36;58.73;100681.72;5093253;27;101316;-80
2023/12/02 08:07:43;;;;;;;16.67;7.55;;;;;;;1.28;58.48;100692.09;5088442;27;98114;-79
2023/12/02 08:10:10;;;;;;;20.27;8.15;;;;;;;1.08;59.80;100684.28;5092284;27;96766;-79
2023/12/02 08:12:36;;;;;;;18.45;7.57;;;;;;;1.18;59.57;100683.41;5079920;27;97044;-79
2023/12/02 08:15:03;;;;;;;15.80;6.80;;;;;;;1.53;59.17;100678.25;5092870;27;101824;-81
2023/12/02 08:17:33;;;;;;;21.70;8.48;;;;;;;1.53;58.40;100683.44;5088006;27;97389;-81
2023/12/02 08:19:59;;;;;;;16.00;7.45;;;;;;;1.19;59.65;100689.47;5090181;27;98470;-82
2023/12/02 08:22:28;;;;;;;19.90;7.88;;;;;;;1.11;60.86;100692.09;5087867;27;96851;-81
2023/12/02 08:24:55;;;;;;;20.08;8.75;;;;;;;1.31;60.44;100689.53;5091010;27;99464;-81
2023/12/02 08:27:22;;;;;;;18.30;8.27;;;;;;;1.44;60.99;100698.22;5091620;27;99257;-82
2023/12/02 08:29:48;;;;;;;20.45;8.50;;;;;;;1.88;59.21;100706.88;5086848;27;97744;-80
2023/12/02 08:32:15;;;;;;;19.90;8.93;;;;;;;2.04;59.00;100701.63;5086827;27;98028;-78
2023/12/02 08:34:41;;;;;;;20.05;8.55;;;;;;;2.36;58.39;100695.47;5086160;27;99518;-78
2023/12/02 08:37:08;;;;;;;24.85;10.30;;;;;;;2.31;58.06;100706.78;5085679;27;97964;-78
2023/12/02 08:39:37;;;;;;;23.23;9.57;;;;;;;1.96;57.56;100712.09;5080600;27;97437;-77
2023/12/02 08:42:04;;;;;;;18.63;8.70;;;;;;;1.81;58.48;100709.50;5084680;27;97410;-78
2023/12/02 08:44:30;;;;;;;24.23;9.35;;;;;;;1.47;59.66;100714.69;5089214;27;99223;-78
2023/12/02 08:46:58;;;;;;;20.70;8.77;;;;;;;1.34;60.59;100720.75;5082948;27;97529;-79
2023/12/02 08:49:25;;;;;;;21.40;8.95;;;;;;;1.70;60.36;100719.06;5085650;27;98643;-78
2023/12/02 08:51:51;;;;;;;26.70;10.77;;;;;;;1.93;59.97;100720.78;5082582;27;96823;-78
2023/12/02 08:54:18;;;;;;;21.65;9.13;;;;;;;1.95;59.35;100713.84;5085294;27;97698;-78
2023/12/02 08:56:45;;;;;;;20.95;8.55;;;;;;;2.01;59.51;100715.56;5091105;27;98918;-80
2023/12/02 08:59:12;;;;;;;21.98;9.68;;;;;;;2.26;58.46;100718.97;5091196;27;99850;-80
2023/12/02 09:01:42;;;;;;;22.38;8.55;;;;;;;1.79;60.07;100732.94;5083203;27;96830;-80
2023/12/02 09:04:08;;;;;;;29.88;10.60;;;;;;;1.69;60.95;100727.75;5088959;27;98989;-79
2023/12/02 09:06:35;;;;;;;24.50;9.48;;;;;;;1.65;60.07;100739.00;5095908;27;98107;-79
2023/12/02 09:09:02;;;;;;;27.35;10.88;;;;;;;1.87;60.46;100730.34;5078827;27;96908;-78
2023/12/02 09:11:32;;;;;;;22.60;10.27;;;;;;;1.94;59.24;100732.06;5084608;27;97329;-77
2023/12/02 09:14:00;;;;;;;23.40;10.13;;;;;;;1.98;59.57;100718.16;5084436;27;101517;-78
2023/12/02 09:16:29;;;;;;;23.42;10.60;;;;;;;2.12;59.10;100715.53;5092309;27;102208;-78
2023/12/02 09:18:56;;;;;;;24.15;10.32;;;;;;;2.00;59.64;100717.28;5090413;27;96871;-78
2023/12/02 09:21:46;;;;;;;22.75;9.32;;;;;;;2.48;59.01;100720.69;5095990;27;96927;-79
2023/12/02 09:24:40;;;;;;;27.13;10.68;;;;;;;2.79;56.85;100711.84;5100368;27;97769;-78
2023/12/02 09:27:33;;;;;;;25.85;11.15;;;;;;;2.99;56.60;100710.88;5098981;27;99812;-79
2023/12/02 09:30:04;;;;;;;27.23;10.25;;;;;;;2.78;56.84;100715.34;5091345;27;96844;-78
2023/12/02 09:32:46;;;;;;;22.38;9.68;;;;;;;3.01;56.09;100709.16;5101472;27;96612;-78
2023/12/02 09:35:16;;;;;;;22.52;9.27;;;;;;;2.81;56.46;100719.69;5093996;27;100688;-79
2023/12/02 09:38:05;;;;;;;20.70;8.95;;;;;;;3.07;56.74;100711.72;5101066;27;98395;-80
2023/12/02 09:40:38;;;;;;;25.02;9.68;;;;;;;3.11;56.29;100716.91;5095620;27;96704;-78
2023/12/02 09:43:22;;;;;;;24.23;10.00;;;;;;;3.09;56.20;100713.44;5097994;27;96780;-78
2023/12/02 09:46:12;;;;;;;21.67;9.80;;;;;;;2.69;57.86;100710.13;5097005;27;100777;-79
2023/12/02 09:48:49;;;;;;;23.70;10.20;;;;;;;2.75;58.36;100719.72;5094832;27;97629;-80
2023/12/02 09:51:30;;;;;;;22.98;10.05;;;;;;;2.82;57.79;100731.00;5093914;27;96837;-80
2023/12/02 09:54:05;;;;;;;24.10;9.57;;;;;;;2.67;57.84;100724.09;5090362;27;97518;-78
2023/12/02 09:56:39;;;;;;;21.45;9.35;;;;;;;2.80;57.50;100731.84;5095371;27;97720;-79
2023/12/02 09:59:15;;;;;;;25.83;11.38;;;;;;;2.85;58.08;100729.22;5096032;27;100895;-77
2023/12/02 10:01:47;;;;;;;25.02;10.30;;;;;;;2.51;59.13;100746.72;5102398;27;96668;-78
2023/12/02 10:04:26;;;;;;;27.83;11.70;;;;;;;2.55;59.68;100745.88;5088925;27;96799;-79
2023/12/02 10:07:03;;;;;;;32.92;11.55;;;;;;;2.51;59.48;100751.06;5090769;27;101388;-76
2023/12/02 10:09:44;;;;;;;25.95;10.63;;;;;;;2.55;59.85;100747.59;5080654;27;98777;-78
2023/12/02 10:12:25;;;;;;;30.10;11.52;;;;;;;3.06;57.97;100742.19;5081187;27;98952;-79
2023/12/02 10:15:00;;;;;;;27.45;10.85;;;;;;;3.28;56.51;100737.72;5086631;27;96999;-78
2023/12/02 10:17:31;;;;;;;30.92;11.95;;;;;;;2.89;57.79;100737.91;5089760;27;98339;-77
2023/12/02 10:20:02;;;;;;;28.00;11.48;;;;;;;3.02;57.32;100744.81;5083072;27;98834;-80
2023/12/02 10:22:33;;;;;;;26.67;10.52;;;;;;;3.21;56.58;100736.00;5087343;27;96868;-80
2023/12/02 10:25:04;;;;;;;27.10;10.73;;;;;;;3.03;56.86;100734.34;5088636;27;96689;-80
2023/12/02 10:27:37;;;;;;;28.13;10.77;;;;;;;2.69;58.41;100740.59;5088655;27;98017;-82
2023/12/02 10:30:10;;;;;;;23.58;9.75;;;;;;;2.90;57.85;100739.63;5087435;27;99247;-81
2023/12/02 10:32:50;;;;;;;27.27;10.57;;;;;;;3.02;57.53;100724.78;5086945;27;97040;-81
2023/12/02 10:35:19;;;;;;;25.60;10.80;;;;;;;3.11;57.48;100719.50;5088225;27;97037;-82
2023/12/02 10:37:50;;;;;;;28.13;10.63;;;;;;;2.92;57.82;100717.00;5090994;27;99367;-80
2023/12/02 10:40:22;;;;;;;22.35;9.65;;;;;;;2.93;57.98;100721.34;5089497;27;97506;-80
2023/12/02 10:42:58;;;;;;;23.10;9.52;;;;;;;2.46;58.25;100718.94;5091262;27;96774;-80
2023/12/02 10:45:26;;;;;;;20.08;8.52;;;;;;;2.43;59.26;100719.78;5088308;27;98600;-80
2023/12/02 10:47:55;;;;;;;21.55;9.32;;;;;;;2.12;59.99;100713.78;5090274;27;102368;-80
2023/12/02 10:50:23;;;;;;;22.50;8.07;;;;;;;2.29;59.96;100711.16;5082200;27;99523;-80
2023/12/02 10:52:58;;;;;;;20.55;8.88;;;;;;;2.37;59.79;100712.84;5084375;27;97565;-81
2023/12/02 10:55:26;;;;;;;23.23;9.45;;;;;;;2.42;59.24;100710.25;5081421;27;96777;-80
2023/12/02 10:57:54;;;;;;;24.17;9.10;;;;;;;2.49;59.11;100717.19;5081772;27;97666;-81
2023/12/02 11:00:22;;;;;;;19.00;8.95;;;;;;;2.67;58.80;100709.31;5081427;27;98840;-80
2023/12/02 11:02:51;;;;;;;20.65;9.65;;;;;;;2.74;58.15;100713.63;5088118;27;98901;-80
2023/12/02 11:05:24;;;;;;;18.48;8.15;;;;;;;2.62;57.96;100715.41;5083303;27;98851;-81
2023/12/02 11:07:53;;;;;;;19.98;7.32;;;;;;;2.44;58.24;100721.53;5090106;27;101116;-80
2023/12/02 11:10:30;;;;;;;17.60;6.97;;;;;;;2.46;57.79;100718.94;5092163;27;98511;-79
2023/12/02 11:13:02;;;;;;;14.45;7.10;;;;;;;2.27;58.34;100720.72;5082750;27;97084;-79
2023/12/02 11:15:29;;;;;;;18.38;7.32;;;;;;;1.78;60.02;100725.13;5083621;27;98865;-82
2023/12/02 11:18:01;;;;;;;13.75;6.47;;;;;;;1.54;61.33;100716.44;5082493;27;98704;-81
2023/12/02 11:20:38;;;;;;;15.25;7.18;;;;;;;1.39;62.04;100715.53;5085401;27;98908;-82